Lombard, Illinois
Current Conditions -  °F | °C
As of 8:51 AM on Thursday 30 Oct 2014 (Local Time) from KORD Reporting Station
Broken Clouds Broken Clouds  
Wind Chill: 39°   Ceiling: 25000
Heat Index: 39°   Visibility: 10mi
Dew Point: 33°   Wind: 3mph
Humidity: 79%   Direction: 210°SSW
Pressure: 30.14"   Gusts: NA
Location:  41.87°N, 88.01°W
Report Text: KORD 301351Z 21003KT 10SM SCT140 BKN250 04/01 A3014 RMK AO2 SLP210 T00390006
Loading
Personal Weather Stations






























Interactive Weather Map
Tropical Storm Tracking
New forecast layout! Learn more

10-Day Weather Forecast

Advertisements
Track Severe Weather on mobile